Time;durP1;ratioP1;P1;durP2;ratioP2;P2;SDS_P1;SDS_P2;PMS_P1;PMS_P2;Temp;Humidity;BMP_temperature;BMP_pressure;BME280_temperature;BME280_humidity;BME280_pressure;Samples;Min_cycle;Max_cycle;Signal;HPM_P1;HPM_P2
2023/01/22 00:00:01;;;;;;;25.75;8.95;;;-0.20;1.00;;;;;;5072646;28;20853;-56
2023/01/22 00:02:26;;;;;;;22.73;9.63;;;-0.10;1.00;;;;;;5072015;28;20376;-57
2023/01/22 00:04:52;;;;;;;23.90;9.37;;;-0.20;1.00;;;;;;5072394;28;20717;-57
2023/01/22 00:07:18;;;;;;;20.80;9.02;;;-0.10;1.00;;;;;;5087745;28;20392;-57
2023/01/22 00:09:44;;;;;;;20.20;9.60;;;-0.10;1.00;;;;;;5071374;28;20396;-58
2023/01/22 00:12:09;;;;;;;25.98;8.63;;;-0.10;1.00;;;;;;5071899;28;20851;-58
2023/01/22 00:14:35;;;;;;;20.88;9.32;;;-0.10;1.00;;;;;;5071538;28;20857;-58
2023/01/22 00:17:01;;;;;;;22.55;8.93;;;-0.20;1.00;;;;;;5072245;28;20844;-58
2023/01/22 00:19:27;;;;;;;20.27;9.60;;;-0.20;1.00;;;;;;5071213;28;20379;-57
2023/01/22 00:21:52;;;;;;;21.60;10.00;;;-0.20;1.00;;;;;;5072440;28;20717;-58
2023/01/22 00:24:18;;;;;;;24.38;9.93;;;-0.20;1.00;;;;;;5071641;28;20387;-58
2023/01/22 00:26:44;;;;;;;20.70;8.37;;;-0.10;1.00;;;;;;5071163;28;20372;-57
2023/01/22 00:29:10;;;;;;;20.93;8.93;;;-0.20;1.00;;;;;;5071548;28;20414;-55
2023/01/22 00:31:36;;;;;;;22.27;9.93;;;0.70;1.00;;;;;;5071249;28;20394;-57
2023/01/22 00:34:02;;;;;;;26.38;10.38;;;-0.10;1.00;;;;;;5071692;28;20745;-57
2023/01/22 00:36:28;;;;;;;19.92;9.90;;;-0.10;1.00;;;;;;5071351;28;20372;-57
2023/01/22 00:38:53;;;;;;;28.30;10.43;;;-0.10;1.00;;;;;;5071818;28;20441;-57
2023/01/22 00:41:19;;;;;;;24.05;9.27;;;0.10;1.00;;;;;;5071459;28;20895;-58
2023/01/22 00:43:46;;;;;;;22.40;9.43;;;0.10;1.00;;;;;;5071283;28;20462;-57
2023/01/22 00:46:14;;;;;;;24.10;9.15;;;-0.10;1.00;;;;;;5071014;28;20376;-57
2023/01/22 00:48:41;;;;;;;20.27;8.40;;;-0.20;1.00;;;;;;5068795;28;20400;-55
2023/01/22 00:51:07;;;;;;;27.02;10.40;;;-0.30;1.00;;;;;;5071163;28;20387;-55
2023/01/22 00:53:36;;;;;;;24.60;11.00;;;-0.30;1.00;;;;;;5070673;28;20375;-55
2023/01/22 00:56:02;;;;;;;17.60;7.82;;;-0.10;1.00;;;;;;5070826;28;20430;-55
2023/01/22 00:58:28;;;;;;;22.05;8.35;;;-0.30;1.00;;;;;;5070079;28;20388;-56
2023/01/22 01:00:55;;;;;;;22.50;8.93;;;-0.30;1.00;;;;;;5071093;28;20368;-56
2023/01/22 01:03:27;;;;;;;21.90;8.23;;;-0.30;1.00;;;;;;5071176;28;20433;-55
2023/01/22 01:06:04;;;;;;;20.48;9.23;;;-0.30;1.00;;;;;;5071359;28;20865;-56
2023/01/22 01:08:33;;;;;;;21.20;9.52;;;-0.30;1.00;;;;;;5070194;28;20379;-56
2023/01/22 01:11:02;;;;;;;22.83;9.95;;;-0.20;1.00;;;;;;5071229;28;20384;-56
2023/01/22 01:13:31;;;;;;;28.50;10.57;;;0.20;1.00;;;;;;5070534;28;20463;-55
2023/01/22 01:16:03;;;;;;;24.00;8.98;;;0.20;1.00;;;;;;5070261;28;20710;-57
2023/01/22 01:18:29;;;;;;;20.50;9.97;;;0.00;1.00;;;;;;5069817;28;20449;-58
2023/01/22 01:20:56;;;;;;;24.92;11.02;;;1.00;1.00;;;;;;5071045;28;20376;-58
2023/01/22 01:23:23;;;;;;;24.30;10.10;;;0.20;1.00;;;;;;5070533;28;20453;-58
2023/01/22 01:25:49;;;;;;;22.35;8.70;;;0.50;1.00;;;;;;5068708;28;20419;-57
2023/01/22 01:28:15;;;;;;;20.17;9.00;;;0.30;1.00;;;;;;5070297;28;20432;-57
2023/01/22 01:30:41;;;;;;;23.70;9.27;;;0.30;1.00;;;;;;5069749;28;20428;-58
2023/01/22 01:33:07;;;;;;;17.30;9.17;;;0.30;1.00;;;;;;5085319;28;20382;-57
2023/01/22 01:35:32;;;;;;;21.53;9.37;;;0.20;1.00;;;;;;5069803;28;20471;-56
2023/01/22 01:37:58;;;;;;;20.52;10.05;;;0.20;1.00;;;;;;5070162;28;20388;-56
2023/01/22 01:40:23;;;;;;;21.23;9.10;;;0.30;1.00;;;;;;5069742;28;20845;-56
2023/01/22 01:42:49;;;;;;;20.10;8.93;;;0.40;1.00;;;;;;5070410;28;20449;-56
2023/01/22 01:45:21;;;;;;;22.77;9.10;;;0.40;1.00;;;;;;5070386;28;20380;-57
2023/01/22 01:47:55;;;;;;;23.10;8.80;;;0.60;1.00;;;;;;5069140;28;20948;-58
2023/01/22 01:50:23;;;;;;;18.15;7.70;;;0.50;99.90;;;;;;5070284;28;20435;-58
2023/01/22 01:52:49;;;;;;;21.70;9.00;;;0.60;99.90;;;;;;5069425;28;20462;-58
2023/01/22 01:55:19;;;;;;;17.75;7.82;;;0.60;99.90;;;;;;5069610;28;20466;-56
2023/01/22 01:57:45;;;;;;;23.80;9.65;;;0.70;99.90;;;;;;5069162;28;20388;-55
2023/01/22 02:00:12;;;;;;;19.67;9.25;;;0.50;99.90;;;;;;5070789;28;20445;-58
2023/01/22 02:02:39;;;;;;;18.93;8.00;;;0.60;99.90;;;;;;5067692;28;20376;-58
2023/01/22 02:05:07;;;;;;;18.55;7.93;;;0.50;99.90;;;;;;5070214;28;20387;-58
2023/01/22 02:07:32;;;;;;;18.45;8.38;;;0.50;99.90;;;;;;5069284;28;20380;-58
2023/01/22 02:09:58;;;;;;;18.70;8.70;;;0.40;99.90;;;;;;5069631;28;20418;-58
2023/01/22 02:12:23;;;;;;;20.77;9.17;;;0.40;99.90;;;;;;5069892;28;20387;-58
2023/01/22 02:14:49;;;;;;;21.83;8.73;;;0.40;1.00;;;;;;5069473;28;20368;-58
2023/01/22 02:17:20;;;;;;;18.33;8.38;;;0.50;1.00;;;;;;5068376;28;20483;-57
2023/01/22 02:19:46;;;;;;;20.27;7.95;;;0.40;99.90;;;;;;5069251;28;20872;-57
2023/01/22 02:22:12;;;;;;;15.88;7.15;;;0.30;99.90;;;;;;5070159;28;20383;-58
2023/01/22 02:24:37;;;;;;;19.55;8.95;;;0.30;1.00;;;;;;5068275;28;20451;-57
2023/01/22 02:27:03;;;;;;;17.43;8.07;;;0.40;1.00;;;;;;5070024;28;20424;-57
2023/01/22 02:29:29;;;;;;;18.00;8.07;;;0.40;1.00;;;;;;5068991;28;20411;-58
2023/01/22 02:31:54;;;;;;;19.08;8.40;;;0.40;1.00;;;;;;5069479;28;20445;-57
2023/01/22 02:34:23;;;;;;;23.77;9.77;;;0.30;1.00;;;;;;5070046;28;20403;-57
2023/01/22 02:36:49;;;;;;;17.48;7.63;;;0.40;1.00;;;;;;5068955;28;20375;-58
2023/01/22 02:39:15;;;;;;;20.20;8.90;;;0.50;1.00;;;;;;5069751;28;20392;-58
2023/01/22 02:41:41;;;;;;;21.23;9.37;;;0.50;1.00;;;;;;5067422;28;20884;-57
2023/01/22 02:44:06;;;;;;;18.95;8.00;;;0.60;1.00;;;;;;5069791;28;20371;-58
2023/01/22 02:46:32;;;;;;;20.10;8.50;;;0.70;1.00;;;;;;5068637;28;20473;-58
2023/01/22 02:48:58;;;;;;;17.73;8.23;;;0.60;99.90;;;;;;5069554;28;20403;-58
2023/01/22 02:51:25;;;;;;;18.70;8.80;;;0.50;99.90;;;;;;5069738;28;20395;-58
2023/01/22 02:53:51;;;;;;;18.75;7.70;;;0.60;99.90;;;;;;5068871;28;20729;-57
2023/01/22 02:56:16;;;;;;;20.60;9.07;;;0.40;99.90;;;;;;5069551;28;20388;-57
2023/01/22 02:58:42;;;;;;;19.63;8.40;;;0.50;1.00;;;;;;5068837;28;20379;-57
2023/01/22 03:01:19;;;;;;;17.83;7.43;;;0.60;99.90;;;;;;5069892;28;20383;-57
2023/01/22 03:03:46;;;;;;;22.00;8.10;;;0.60;99.90;;;;;;5068366;28;21174;-57
2023/01/22 03:06:14;;;;;;;17.63;7.78;;;0.60;99.90;;;;;;5069953;28;20379;-58
2023/01/22 03:08:41;;;;;;;20.08;8.45;;;0.60;99.90;;;;;;5068833;28;20433;-58
2023/01/22 03:11:09;;;;;;;14.93;6.72;;;0.50;99.90;;;;;;5069433;28;20457;-57
2023/01/22 03:21:47;;;;;;;19.10;8.18;;;0.70;99.90;;;;;;5073289;28;20466;-57
2023/01/22 03:24:13;;;;;;;20.07;8.20;;;0.60;99.90;;;;;;5072797;28;20387;-58
2023/01/22 03:26:38;;;;;;;18.37;7.83;;;0.70;99.90;;;;;;5072557;28;20464;-57
2023/01/22 03:29:04;;;;;;;22.90;8.45;;;0.70;99.90;;;;;;5073095;28;20419;-57
2023/01/22 03:31:30;;;;;;;18.40;8.77;;;0.80;99.90;;;;;;5071893;28;20384;-58
2023/01/22 03:33:56;;;;;;;17.23;7.17;;;0.70;99.90;;;;;;5073072;28;20383;-56
2023/01/22 03:36:22;;;;;;;18.77;8.75;;;0.50;1.00;;;;;;5073101;28;20416;-57
2023/01/22 03:38:48;;;;;;;18.80;8.75;;;0.50;1.00;;;;;;5072326;28;20430;-57
2023/01/22 03:41:15;;;;;;;20.50;9.20;;;0.40;1.00;;;;;;5072871;28;20433;-58
2023/01/22 03:43:40;;;;;;;20.75;9.38;;;0.60;1.00;;;;;;5071930;28;20812;-57
2023/01/22 03:46:12;;;;;;;17.63;7.33;;;0.50;1.00;;;;;;5072485;28;20430;-58
2023/01/22 03:48:39;;;;;;;22.20;9.27;;;0.50;1.00;;;;;;5071690;28;20383;-57
2023/01/22 03:51:10;;;;;;;19.60;7.75;;;0.40;1.00;;;;;;5072182;28;20449;-57
2023/01/22 03:53:36;;;;;;;19.50;7.80;;;0.40;1.00;;;;;;5072140;28;20376;-57
2023/01/22 03:56:05;;;;;;;25.07;10.07;;;0.40;1.00;;;;;;5072562;28;20398;-58
2023/01/22 03:58:31;;;;;;;21.42;9.50;;;0.60;1.00;;;;;;5071539;28;20479;-58
2023/01/22 04:01:01;;;;;;;29.20;8.82;;;0.60;1.00;;;;;;5072424;28;20371;-57
2023/01/22 04:03:28;;;;;;;17.75;7.47;;;1.20;1.00;;;;;;5071996;28;20379;-57
2023/01/22 04:05:54;;;;;;;21.98;8.80;;;0.60;1.00;;;;;;5072158;28;20387;-58
2023/01/22 04:08:20;;;;;;;20.48;9.85;;;0.50;1.00;;;;;;5072040;28;20417;-57
2023/01/22 04:10:46;;;;;;;24.58;9.00;;;0.50;1.00;;;;;;5070877;28;20868;-57
2023/01/22 04:13:12;;;;;;;22.40;8.95;;;0.60;1.00;;;;;;5072047;28;20367;-57
2023/01/22 04:15:37;;;;;;;21.33;8.87;;;0.60;1.00;;;;;;5071048;28;20444;-57
2023/01/22 04:18:03;;;;;;;19.90;8.37;;;0.60;1.00;;;;;;5070794;28;20417;-57
2023/01/22 04:20:29;;;;;;;20.75;8.77;;;0.60;1.00;;;;;;5071181;28;20383;-57
2023/01/22 04:22:54;;;;;;;19.02;8.77;;;0.40;1.00;;;;;;5072009;28;20390;-57
2023/01/22 04:25:20;;;;;;;21.20;8.80;;;0.50;1.00;;;;;;5071818;28;20407;-58
2023/01/22 04:27:46;;;;;;;23.42;9.32;;;0.40;1.00;;;;;;5071560;28;21071;-57
2023/01/22 04:30:12;;;;;;;22.38;9.30;;;0.50;1.00;;;;;;5071710;28;20415;-57
2023/01/22 04:32:37;;;;;;;20.27;10.00;;;0.50;1.00;;;;;;5070048;28;20405;-57
2023/01/22 04:35:03;;;;;;;25.60;10.40;;;0.60;1.00;;;;;;5071751;28;20495;-58
2023/01/22 04:37:30;;;;;;;19.13;9.23;;;0.60;1.00;;;;;;5071424;28;20912;-57
2023/01/22 04:39:55;;;;;;;23.92;10.30;;;0.60;1.00;;;;;;5071907;28;20863;-57
2023/01/22 04:42:21;;;;;;;25.20;9.43;;;1.50;1.00;;;;;;5071636;28;20376;-57
2023/01/22 04:44:47;;;;;;;27.50;10.30;;;0.60;1.00;;;;;;5071096;28;20406;-57
2023/01/22 04:47:13;;;;;;;24.67;10.00;;;0.40;1.00;;;;;;5071440;28;20395;-57
2023/01/22 04:49:38;;;;;;;25.20;10.40;;;0.70;1.00;;;;;;5071226;28;20482;-58
2023/01/22 04:52:04;;;;;;;22.17;9.83;;;0.70;1.00;;;;;;5071083;28;20429;-57
2023/01/22 04:54:29;;;;;;;26.17;10.50;;;0.70;1.00;;;;;;5070382;28;20399;-57
2023/01/22 04:56:55;;;;;;;22.83;9.27;;;0.70;1.00;;;;;;5071593;28;20380;-58
2023/01/22 04:59:20;;;;;;;25.77;10.23;;;0.70;1.00;;;;;;5071200;28;20488;-57
2023/01/22 05:01:49;;;;;;;24.30;9.83;;;0.70;1.00;;;;;;5070376;28;20863;-57
2023/01/22 05:04:15;;;;;;;26.25;10.02;;;0.60;1.00;;;;;;5070860;28;20384;-57
2023/01/22 05:06:41;;;;;;;21.77;8.70;;;0.50;1.00;;;;;;5069184;28;20861;-57
2023/01/22 05:09:06;;;;;;;21.97;8.63;;;0.50;1.00;;;;;;5070955;28;20404;-57
2023/01/22 05:11:32;;;;;;;25.60;9.60;;;0.90;1.00;;;;;;5085835;28;20486;-58
2023/01/22 05:13:57;;;;;;;22.05;9.63;;;0.50;1.00;;;;;;5070675;28;20394;-57
2023/01/22 05:16:23;;;;;;;26.93;9.93;;;0.60;1.00;;;;;;5070616;28;20387;-57
2023/01/22 05:18:49;;;;;;;24.97;10.10;;;0.60;1.00;;;;;;5070394;28;20379;-57
2023/01/22 05:21:14;;;;;;;24.33;10.38;;;0.50;1.00;;;;;;5069064;28;20404;-57
2023/01/22 05:23:40;;;;;;;28.80;10.93;;;0.60;1.00;;;;;;5069763;28;20387;-57
2023/01/22 05:26:05;;;;;;;22.50;10.43;;;0.70;1.00;;;;;;5070985;28;20442;-57
2023/01/22 05:28:31;;;;;;;19.85;10.07;;;0.70;1.00;;;;;;5070493;28;20471;-57
2023/01/22 05:30:57;;;;;;;25.23;11.23;;;0.80;1.00;;;;;;5070969;28;20736;-57
2023/01/22 05:33:27;;;;;;;21.48;8.93;;;0.80;1.00;;;;;;5070388;28;21544;-57
2023/01/22 05:35:57;;;;;;;23.88;9.55;;;1.00;1.00;;;;;;5069371;28;20398;-58
2023/01/22 05:38:23;;;;;;;24.25;10.18;;;1.00;1.00;;;;;;5070250;28;20920;-57
2023/01/22 05:40:48;;;;;;;25.45;11.25;;;1.00;1.00;;;;;;5069187;28;20395;-57
2023/01/22 05:43:14;;;;;;;23.67;10.77;;;1.10;1.00;;;;;;5070356;28;20937;-58
2023/01/22 05:45:40;;;;;;;27.15;11.25;;;1.10;99.90;;;;;;5069705;28;20384;-58
2023/01/22 05:48:05;;;;;;;21.70;9.23;;;1.10;99.90;;;;;;5070545;28;20380;-57
2023/01/22 05:50:31;;;;;;;25.98;10.15;;;1.10;99.90;;;;;;5060016;28;20910;-57
2023/01/22 05:52:56;;;;;;;25.37;10.13;;;1.10;99.90;;;;;;5040545;28;20389;-57
2023/01/22 05:55:22;;;;;;;24.57;9.00;;;1.10;99.90;;;;;;5041366;28;20698;-57
2023/01/22 05:57:48;;;;;;;23.88;10.20;;;1.00;99.90;;;;;;5044868;28;20405;-58
2023/01/22 06:00:15;;;;;;;25.55;11.18;;;1.10;99.90;;;;;;5030084;28;20918;-58
2023/01/22 06:02:40;;;;;;;31.98;11.30;;;1.20;1.00;;;;;;5047012;28;20377;-57
2023/01/22 06:05:07;;;;;;;22.03;9.77;;;1.20;99.90;;;;;;5049946;28;20409;-57
2023/01/22 06:07:32;;;;;;;24.93;9.90;;;1.30;99.90;;;;;;5049089;28;20731;-57
2023/01/22 06:09:58;;;;;;;18.80;8.87;;;1.70;99.90;;;;;;5050024;28;20412;-57
2023/01/22 06:12:23;;;;;;;21.98;9.73;;;1.20;99.90;;;;;;5050176;28;20385;-57
2023/01/22 06:14:49;;;;;;;24.57;11.00;;;1.10;99.90;;;;;;5049141;28;20977;-57
2023/01/22 06:17:15;;;;;;;24.60;9.97;;;1.10;99.90;;;;;;5049921;28;20374;-58
2023/01/22 06:19:41;;;;;;;27.35;11.43;;;1.20;99.90;;;;;;5049332;28;20418;-58
2023/01/22 06:22:07;;;;;;;24.40;9.53;;;1.20;99.90;;;;;;5050054;28;20463;-58
2023/01/22 06:24:32;;;;;;;22.88;9.45;;;1.30;99.90;;;;;;5048710;28;20559;-57
2023/01/22 06:26:58;;;;;;;22.95;9.35;;;1.30;99.90;;;;;;5045128;28;20403;-57
2023/01/22 06:29:24;;;;;;;22.30;9.37;;;1.30;99.90;;;;;;5038412;28;20411;-57
2023/01/22 06:31:49;;;;;;;21.10;10.00;;;1.20;99.90;;;;;;5029271;28;20401;-57
2023/01/22 06:34:15;;;;;;;19.70;10.07;;;1.30;99.90;;;;;;5029761;28;20379;-57
2023/01/22 06:36:41;;;;;;;24.70;9.80;;;1.30;99.90;;;;;;5028686;28;20387;-57
2023/01/22 06:39:06;;;;;;;22.25;9.60;;;1.30;99.90;;;;;;5030093;28;20393;-57
2023/01/22 06:41:32;;;;;;;21.83;8.60;;;1.40;99.90;;;;;;5029660;28;20734;-58
2023/01/22 06:43:57;;;;;;;23.17;9.90;;;1.40;99.90;;;;;;5029489;28;20379;-57
2023/01/22 06:46:23;;;;;;;21.15;9.75;;;1.40;99.90;;;;;;5029785;28;20417;-58
2023/01/22 06:48:49;;;;;;;22.00;10.18;;;1.40;99.90;;;;;;5032519;28;20434;-58
2023/01/22 06:51:14;;;;;;;27.77;9.30;;;1.40;99.90;;;;;;5033745;28;20482;-57
2023/01/22 06:53:40;;;;;;;22.75;9.15;;;1.50;99.90;;;;;;5033305;28;20913;-57
2023/01/22 06:56:06;;;;;;;25.97;10.30;;;1.50;99.90;;;;;;5033925;28;20422;-57
2023/01/22 06:58:32;;;;;;;21.23;9.10;;;1.50;99.90;;;;;;5033320;28;20437;-55
2023/01/22 07:01:01;;;;;;;22.40;9.93;;;1.50;99.90;;;;;;5033679;28;20772;-56
2023/01/22 07:03:27;;;;;;;24.30;10.10;;;1.50;99.90;;;;;;5033782;28;20405;-56
2023/01/22 07:05:56;;;;;;;25.45;11.20;;;1.50;99.90;;;;;;5048813;28;20551;-56
2023/01/22 07:08:21;;;;;;;24.65;9.73;;;1.40;99.90;;;;;;5053377;28;20778;-56
2023/01/22 07:10:47;;;;;;;23.17;9.27;;;1.50;99.90;;;;;;5068137;28;20401;-55
2023/01/22 07:13:14;;;;;;;27.90;10.57;;;1.50;99.90;;;;;;5053217;28;20389;-55
2023/01/22 07:15:40;;;;;;;24.38;9.75;;;1.50;99.90;;;;;;5052491;28;20384;-56
2023/01/22 07:18:06;;;;;;;23.73;10.55;;;1.40;99.90;;;;;;5053305;28;20381;-56
2023/01/22 07:20:31;;;;;;;22.90;9.27;;;1.40;99.90;;;;;;5052695;28;20385;-55
2023/01/22 07:22:58;;;;;;;24.63;11.10;;;1.40;99.90;;;;;;5052746;28;20464;-56
2023/01/22 07:25:25;;;;;;;24.38;10.00;;;1.40;99.90;;;;;;5052658;28;20411;-55
2023/01/22 07:27:51;;;;;;;23.92;9.65;;;1.40;99.90;;;;;;5052084;28;20388;-55
2023/01/22 07:30:17;;;;;;;22.67;9.93;;;1.40;99.90;;;;;;5052822;28;20412;-56
2023/01/22 07:32:43;;;;;;;25.25;11.40;;;1.40;99.90;;;;;;5052025;28;20477;-57
2023/01/22 07:35:09;;;;;;;24.45;9.73;;;1.40;99.90;;;;;;5052679;28;20382;-56
2023/01/22 07:37:35;;;;;;;25.55;10.68;;;1.40;99.90;;;;;;5050880;28;20878;-55
2023/01/22 07:40:01;;;;;;;28.42;10.40;;;1.40;99.90;;;;;;5045436;28;20959;-51
2023/01/22 07:42:27;;;;;;;23.77;10.98;;;1.30;99.90;;;;;;5052527;28;20395;-51
2023/01/22 07:44:52;;;;;;;26.27;11.02;;;1.30;99.90;;;;;;5050746;28;20678;-51
2023/01/22 07:47:18;;;;;;;25.63;10.00;;;1.30;99.90;;;;;;5032376;28;20462;-51
2023/01/22 07:49:44;;;;;;;22.37;11.40;;;1.30;99.90;;;;;;5032179;28;20415;-51
2023/01/22 07:52:09;;;;;;;26.90;11.80;;;1.20;99.90;;;;;;5046877;28;20460;-54
2023/01/22 07:54:35;;;;;;;28.08;12.77;;;1.20;99.90;;;;;;5051660;28;20401;-52
2023/01/22 07:57:02;;;;;;;28.00;11.20;;;1.30;1.00;;;;;;5052224;28;20405;-57
2023/01/22 07:59:28;;;;;;;25.70;12.55;;;1.30;1.00;;;;;;5049229;28;20401;-57
2023/01/22 08:01:54;;;;;;;35.50;14.83;;;1.40;1.00;;;;;;5050615;28;20435;-57
2023/01/22 08:04:20;;;;;;;27.73;13.03;;;1.50;1.00;;;;;;5052106;28;20373;-57
2023/01/22 08:06:45;;;;;;;28.20;12.80;;;2.50;1.00;;;;;;5051490;28;20373;-57
2023/01/22 08:09:11;;;;;;;27.38;11.77;;;1.70;1.00;;;;;;5051994;28;20874;-56
2023/01/22 08:11:36;;;;;;;27.83;12.90;;;1.90;1.00;;;;;;5051058;28;20770;-57
2023/01/22 08:14:02;;;;;;;24.23;11.33;;;1.80;99.90;;;;;;5053233;28;20858;-57
2023/01/22 08:16:28;;;;;;;29.35;12.82;;;1.90;99.90;;;;;;5045877;28;20402;-58
2023/01/22 08:18:54;;;;;;;27.30;11.13;;;1.90;99.90;;;;;;5046530;28;20459;-58
2023/01/22 08:21:19;;;;;;;35.77;13.57;;;2.80;99.90;;;;;;5051306;28;20482;-57
2023/01/22 08:23:45;;;;;;;28.07;12.67;;;1.90;99.90;;;;;;5031164;28;20391;-58
2023/01/22 08:26:11;;;;;;;27.20;11.68;;;2.00;99.90;;;;;;5032066;28;20419;-58
2023/01/22 08:28:37;;;;;;;21.83;8.93;;;1.90;99.90;;;;;;5031061;28;20482;-57
2023/01/22 08:31:03;;;;;;;22.10;10.27;;;1.90;99.90;;;;;;5031871;28;20383;-57
2023/01/22 08:33:32;;;;;;;23.35;10.75;;;2.00;99.90;;;;;;5031770;28;20433;-57
2023/01/22 08:35:57;;;;;;;24.48;11.20;;;2.10;99.90;;;;;;5031228;28;20383;-58
2023/01/22 08:38:23;;;;;;;24.42;10.40;;;2.10;99.90;;;;;;5031835;28;20392;-57
2023/01/22 08:40:50;;;;;;;27.27;11.75;;;2.30;99.90;;;;;;5031141;28;20486;-57
2023/01/22 08:43:16;;;;;;;21.95;9.88;;;3.20;99.90;;;;;;5031848;28;20724;-57
2023/01/22 08:45:41;;;;;;;24.90;11.00;;;2.40;99.90;;;;;;5031473;28;20380;-57
2023/01/22 08:48:07;;;;;;;19.38;8.65;;;2.20;1.00;;;;;;5031425;28;20394;-57
2023/01/22 08:50:32;;;;;;;24.75;9.98;;;2.20;1.00;;;;;;5031048;28;20443;-58
2023/01/22 08:52:58;;;;;;;22.80;9.80;;;2.10;1.00;;;;;;5039208;28;20909;-57
2023/01/22 08:55:26;;;;;;;31.13;11.98;;;2.00;94.00;;;;;;5042940;28;20408;-57
2023/01/22 08:57:55;;;;;;;23.35;9.88;;;2.00;99.90;;;;;;5050586;28;20459;-57
2023/01/22 09:00:22;;;;;;;22.92;10.10;;;2.20;77.80;;;;;;5051225;28;20877;-58
2023/01/22 09:02:48;;;;;;;26.33;10.43;;;2.30;1.00;;;;;;5050779;28;20920;-58
2023/01/22 09:05:14;;;;;;;24.33;10.70;;;2.30;36.10;;;;;;5050116;28;20382;-57
2023/01/22 09:07:40;;;;;;;26.30;10.15;;;2.30;99.90;;;;;;5050575;28;20412;-57
2023/01/22 09:10:07;;;;;;;23.10;10.30;;;2.40;99.90;;;;;;5051647;28;20447;-56
2023/01/22 09:12:35;;;;;;;22.67;9.70;;;2.60;28.40;;;;;;5050994;28;20373;-57
2023/01/22 09:15:02;;;;;;;21.70;10.02;;;2.60;1.00;;;;;;5051114;28;20468;-57
2023/01/22 09:17:27;;;;;;;26.70;9.90;;;3.70;1.00;;;;;;5051344;28;20481;-56
2023/01/22 09:19:53;;;;;;;24.47;10.77;;;2.70;1.00;;;;;;5050468;28;20460;-57
2023/01/22 09:22:19;;;;;;;24.08;11.48;;;2.70;99.90;;;;;;5050510;28;20391;-57
2023/01/22 09:24:45;;;;;;;25.15;11.30;;;2.70;72.40;;;;;;5041364;28;20418;-57
2023/01/22 09:27:12;;;;;;;25.92;11.63;;;2.70;1.00;;;;;;5031091;28;20383;-56
2023/01/22 09:29:38;;;;;;;25.15;11.02;;;2.60;1.00;;;;;;5029942;28;20410;-56
2023/01/22 09:32:04;;;;;;;27.60;12.93;;;2.60;99.90;;;;;;5031403;28;20387;-56
2023/01/22 09:34:29;;;;;;;23.05;10.63;;;2.80;99.90;;;;;;5030986;28;20902;-57
2023/01/22 09:36:55;;;;;;;25.90;11.70;;;2.70;55.60;;;;;;5030597;28;20371;-56
2023/01/22 09:39:21;;;;;;;25.65;11.00;;;2.80;1.00;;;;;;5030862;28;20456;-56
2023/01/22 09:41:51;;;;;;;27.80;13.07;;;2.80;1.00;;;;;;5029616;28;20411;-56
2023/01/22 09:44:20;;;;;;;23.30;10.82;;;3.00;1.00;;;;;;5030849;28;20378;-56
2023/01/22 09:46:58;;;;;;;27.60;13.50;;;3.00;1.00;;;;;;5030327;28;20382;-55
2023/01/22 09:49:36;;;;;;;24.73;10.60;;;3.20;99.90;;;;;;5030825;28;20443;-56
2023/01/22 09:52:03;;;;;;;27.03;11.00;;;3.20;1.00;;;;;;5030659;28;20376;-56
2023/01/22 09:54:30;;;;;;;26.50;11.70;;;3.30;99.90;;;;;;5030390;28;20387;-56
2023/01/22 09:57:03;;;;;;;22.92;10.05;;;3.30;1.00;;;;;;5029601;28;20471;-56
2023/01/22 09:59:37;;;;;;;22.25;9.70;;;3.40;1.00;;;;;;5030546;28;20402;-56
2023/01/22 10:02:22;;;;;;;21.88;9.73;;;3.90;1.00;;;;;;5030322;28;20384;-56
2023/01/22 10:04:51;;;;;;;23.42;11.05;;;3.50;1.00;;;;;;5029686;28;20898;-56
2023/01/22 10:07:27;;;;;;;28.90;13.00;;;4.20;1.00;;;;;;5029924;28;21222;-56
2023/01/22 10:09:57;;;;;;;22.63;10.33;;;3.80;31.70;;;;;;5029696;28;20442;-56
2023/01/22 10:12:28;;;;;;;24.75;10.77;;;4.10;1.00;;;;;;5030177;28;20386;-56
2023/01/22 10:14:54;;;;;;;23.60;10.80;;;4.00;1.00;;;;;;5045917;28;20880;-56
2023/01/22 10:17:28;;;;;;;27.02;11.45;;;4.70;1.00;;;;;;5049540;28;20381;-56
2023/01/22 10:19:58;;;;;;;20.80;10.35;;;4.70;99.90;;;;;;5049300;28;20374;-56
2023/01/22 10:22:26;;;;;;;24.05;10.38;;;4.00;1.00;;;;;;5049599;28;20390;-57
2023/01/22 10:24:52;;;;;;;24.52;9.80;;;3.80;1.00;;;;;;5049056;28;20404;-56
2023/01/22 10:27:31;;;;;;;19.48;9.35;;;3.60;35.20;;;;;;5049925;28;20727;-56
2023/01/22 10:30:20;;;;;;;22.02;9.68;;;3.60;99.90;;;;;;5049740;28;20827;-56
2023/01/22 10:33:04;;;;;;;23.70;10.95;;;3.90;99.90;;;;;;5048983;28;20436;-56
2023/01/22 10:35:31;;;;;;;26.08;12.20;;;3.60;1.00;;;;;;5049802;28;20404;-56
2023/01/22 10:37:58;;;;;;;20.10;9.10;;;3.60;1.00;;;;;;5049305;28;20460;-56
2023/01/22 10:40:29;;;;;;;21.65;10.43;;;3.30;1.00;;;;;;5049582;28;20421;-56
2023/01/22 10:43:03;;;;;;;22.52;9.45;;;3.30;1.00;;;;;;5049107;28;20385;-56
2023/01/22 10:45:29;;;;;;;21.07;9.00;;;3.20;99.90;;;;;;5049406;28;20421;-56
2023/01/22 10:48:24;;;;;;;22.13;9.30;;;3.20;99.90;;;;;;5048943;28;20992;-57
2023/01/22 10:51:13;;;;;;;23.30;9.52;;;3.20;1.00;;;;;;5035580;28;20432;-57
2023/01/22 10:53:48;;;;;;;21.37;8.53;;;3.20;1.00;;;;;;5048781;28;20437;-57
2023/01/22 10:56:31;;;;;;;20.80;9.48;;;3.30;99.90;;;;;;5049499;28;20434;-56
2023/01/22 10:59:00;;;;;;;20.77;8.80;;;3.30;44.70;;;;;;5049280;28;20381;-56
2023/01/22 11:01:31;;;;;;;16.85;7.70;;;3.70;1.00;;;;;;5049468;28;20385;-57
2023/01/22 11:03:57;;;;;;;20.13;9.00;;;3.10;1.00;;;;;;5048966;28;20389;-56
2023/01/22 11:06:39;;;;;;;20.08;9.00;;;2.90;92.20;;;;;;5049249;28;20373;-56
2023/01/22 11:09:32;;;;;;;17.92;8.40;;;2.90;99.90;;;;;;5049462;28;20441;-56
2023/01/22 11:12:05;;;;;;;19.30;8.48;;;2.90;99.90;;;;;;5052739;28;20392;-57
2023/01/22 11:14:36;;;;;;;18.42;8.73;;;2.90;1.00;;;;;;5054618;28;20870;-57
2023/01/22 11:17:25;;;;;;;20.00;8.40;;;3.00;99.90;;;;;;5051611;28;20384;-57
2023/01/22 11:19:57;;;;;;;19.50;8.82;;;2.90;99.90;;;;;;5059847;28;20496;-56
2023/01/22 11:22:29;;;;;;;17.80;7.57;;;2.80;99.90;;;;;;5056571;28;20441;-56
2023/01/22 11:24:54;;;;;;;16.50;7.07;;;2.70;1.00;;;;;;5051406;28;20394;-57
2023/01/22 11:27:26;;;;;;;18.03;7.77;;;2.80;99.90;;;;;;5063917;28;20440;-57
2023/01/22 11:30:04;;;;;;;20.48;7.63;;;3.90;99.90;;;;;;5057887;28;20880;-56
2023/01/22 11:32:29;;;;;;;17.60;8.80;;;3.00;99.90;;;;;;5054099;28;20923;-56
2023/01/22 11:35:01;;;;;;;17.50;7.47;;;3.10;99.90;;;;;;5067990;28;20565;-56
2023/01/22 11:37:30;;;;;;;17.55;8.30;;;3.10;99.90;;;;;;5044726;28;20430;-56
2023/01/22 11:40:15;;;;;;;17.95;7.40;;;3.30;99.90;;;;;;5061819;28;20439;-55
2023/01/22 11:43:25;;;;;;;21.02;7.65;;;3.60;99.90;;;;;;5067754;28;20372;-57
2023/01/22 11:46:23;;;;;;;16.77;7.40;;;3.70;1.00;;;;;;5048541;28;20901;-56
2023/01/22 11:49:00;;;;;;;17.30;7.63;;;4.00;1.00;;;;;;5050949;28;20392;-56
2023/01/22 11:51:35;;;;;;;18.20;7.95;;;4.10;1.00;;;;;;5065101;28;20381;-56
2023/01/22 11:54:22;;;;;;;16.75;6.70;;;3.90;1.00;;;;;;5066531;28;20380;-56
2023/01/22 11:57:22;;;;;;;16.00;6.78;;;3.60;99.90;;;;;;5061399;28;20418;-57
2023/01/22 11:59:53;;;;;;;14.65;6.80;;;3.60;99.90;;;;;;5065381;28;20400;-56
2023/01/22 12:02:56;;;;;;;12.93;6.25;;;3.70;1.00;;;;;;5067527;28;20384;-56
2023/01/22 12:05:44;;;;;;;12.98;6.05;;;3.90;99.90;;;;;;5065469;28;20860;-56
2023/01/22 12:08:19;;;;;;;14.93;6.77;;;4.00;1.00;;;;;;5050270;28;20756;-56
2023/01/22 12:11:15;;;;;;;15.68;6.60;;;4.00;1.00;;;;;;5062134;28;20453;-57
2023/01/22 12:13:59;;;;;;;14.75;6.38;;;4.20;1.00;;;;;;5053607;28;20398;-56
2023/01/22 12:17:16;;;;;;;15.27;6.25;;;3.90;99.90;;;;;;5043751;28;20409;-56
2023/01/22 12:20:15;;;;;;;14.88;6.03;;;4.10;99.90;;;;;;4994202;28;20398;-56
2023/01/22 12:23:07;;;;;;;14.80;6.22;;;4.20;99.90;;;;;;5047104;28;20376;-53
2023/01/22 12:25:40;;;;;;;13.77;5.60;;;4.20;99.90;;;;;;5057058;28;20424;-53
2023/01/22 12:28:18;;;;;;;12.68;5.18;;;4.10;99.90;;;;;;5069604;28;20404;-55
2023/01/22 12:30:48;;;;;;;12.38;5.65;;;4.30;99.90;;;;;;5060104;28;20413;-57
2023/01/22 12:33:19;;;;;;;11.05;4.75;;;5.00;99.90;;;;;;5052035;28;20399;-57
2023/01/22 12:35:49;;;;;;;13.30;5.30;;;5.00;95.80;;;;;;5067425;28;20463;-58
2023/01/22 12:38:37;;;;;;;11.82;4.78;;;4.00;57.00;;;;;;5067303;28;20889;-59
2023/01/22 12:41:19;;;;;;;14.00;5.45;;;3.90;96.00;;;;;;5062301;28;20895;-57
2023/01/22 12:43:54;;;;;;;12.07;5.65;;;3.80;99.90;;;;;;5053789;28;20763;-58
2023/01/22 12:46:45;;;;;;;13.63;6.10;;;3.90;99.90;;;;;;5053240;28;20394;-57
2023/01/22 12:49:15;;;;;;;14.25;7.38;;;3.50;1.00;;;;;;5053229;28;20909;-55
2023/01/22 12:51:43;;;;;;;15.65;6.55;;;3.60;1.00;;;;;;5049042;28;20913;-55
2023/01/22 12:54:32;;;;;;;12.30;5.40;;;3.80;99.90;;;;;;5053430;28;20409;-55
2023/01/22 12:57:13;;;;;;;14.27;5.70;;;3.60;99.90;;;;;;5052014;28;20900;-55
2023/01/22 12:59:46;;;;;;;11.65;5.25;;;3.50;1.00;;;;;;5052077;28;20420;-62
2023/01/22 13:02:34;;;;;;;12.63;5.63;;;3.40;1.00;;;;;;5053609;28;20377;-56
2023/01/22 13:05:29;;;;;;;13.45;5.82;;;3.50;1.00;;;;;;5061972;28;20476;-56